createdAt,value
2019-04-01T00:02:08.581Z,0.60
2019-04-01T00:04:39.478Z,0.50
2019-04-01T00:07:09.772Z,0.40
2019-04-01T00:09:40.187Z,0.40
2019-04-01T00:12:09.962Z,0.50
2019-04-01T00:14:41.677Z,0.57
2019-04-01T00:17:14.242Z,0.60
2019-04-01T00:19:46.165Z,0.30
2019-04-01T00:22:17.986Z,0.50
2019-04-01T00:24:48.206Z,0.40
2019-04-01T00:27:19.722Z,0.70
2019-04-01T00:30:22.096Z,0.50
2019-04-01T00:32:52.021Z,0.50
2019-04-01T00:35:21.405Z,0.30
2019-04-01T00:37:51.765Z,0.50
2019-04-01T00:40:22.297Z,0.37
2019-04-01T00:42:59.782Z,0.53
2019-04-01T00:45:29.493Z,0.53
2019-04-01T00:47:59.969Z,0.40
2019-04-01T00:50:29.697Z,0.77
2019-04-01T00:52:59.245Z,0.50
2019-04-01T00:55:29.820Z,0.50
2019-04-01T00:57:59.704Z,0.47
2019-04-01T01:00:32.428Z,0.63
2019-04-01T01:03:02.297Z,0.60
2019-04-01T01:05:32.420Z,0.50
2019-04-01T01:08:02.287Z,0.43
2019-04-01T01:10:32.519Z,0.57
2019-04-01T01:13:02.765Z,0.30
2019-04-01T01:15:33.816Z,0.37
2019-04-01T01:18:03.725Z,0.50
2019-04-01T01:20:33.726Z,0.57
2019-04-01T01:23:04.253Z,0.40
2019-04-01T01:25:33.975Z,0.40
2019-04-01T01:28:03.779Z,0.40
2019-04-01T01:30:36.789Z,0.50
2019-04-01T01:33:06.093Z,0.40
2019-04-01T01:35:35.764Z,0.40
2019-04-01T01:38:05.878Z,0.30
2019-04-01T01:40:38.809Z,0.50
2019-04-01T01:43:09.373Z,0.40
2019-04-01T01:45:39.741Z,0.60
2019-04-01T01:48:09.741Z,0.43
2019-04-01T01:50:41.621Z,0.40
2019-04-01T01:53:13.117Z,0.50
2019-04-01T01:55:42.836Z,0.33
2019-04-01T01:58:12.757Z,0.53
2019-04-01T02:00:43.541Z,0.47
2019-04-01T02:03:13.295Z,0.40
2019-04-01T02:05:43.849Z,0.40
2019-04-01T02:08:13.949Z,0.50
2019-04-01T02:10:44.573Z,0.50
2019-04-01T02:13:14.876Z,0.43
2019-04-01T02:15:45.804Z,0.40
2019-04-01T02:18:16.229Z,0.40
2019-04-01T02:20:46.192Z,1.50
2019-04-01T02:23:16.340Z,0.50
2019-04-01T02:25:47.544Z,0.50
2019-04-01T02:28:18.022Z,0.40
2019-04-01T02:30:47.784Z,0.30
2019-04-01T02:33:19.025Z,0.50
2019-04-01T02:35:50.364Z,0.53
2019-04-01T02:38:20.702Z,0.70
2019-04-01T02:40:51.285Z,0.70
2019-04-01T02:43:21.818Z,0.50
2019-04-01T02:45:51.586Z,0.40
2019-04-01T02:48:21.256Z,0.57
2019-04-01T02:50:52.290Z,0.70
2019-04-01T02:53:22.785Z,0.50
2019-04-01T02:55:54.646Z,0.60
2019-04-01T02:58:24.393Z,0.60
2019-04-01T03:00:54.673Z,0.80
2019-04-01T03:03:28.188Z,0.50
2019-04-01T03:05:58.477Z,0.70
2019-04-01T03:08:28.886Z,0.80
2019-04-01T03:10:59.646Z,0.60
2019-04-01T03:13:30.117Z,0.50
2019-04-01T03:16:01.983Z,0.60
2019-04-01T03:18:32.593Z,0.50
2019-04-01T03:21:03.177Z,1.10
2019-04-01T03:23:33.165Z,0.50
2019-04-01T03:26:04.449Z,0.50
2019-04-01T03:28:34.285Z,0.67
2019-04-01T03:31:04.730Z,0.60
2019-04-01T03:33:34.622Z,0.80
2019-04-01T03:36:05.063Z,0.90
2019-04-01T03:38:34.929Z,1.47
2019-04-01T03:41:04.930Z,1.30
2019-04-01T03:43:35.405Z,1.10
2019-04-01T03:46:05.099Z,1.20
2019-04-01T03:48:34.770Z,1.67
2019-04-01T03:51:04.738Z,0.87
2019-04-01T03:53:34.802Z,1.20
2019-04-01T03:56:05.603Z,0.80
2019-04-01T03:58:35.333Z,1.13
2019-04-01T04:01:05.788Z,1.70
2019-04-01T04:03:35.470Z,0.60
2019-04-01T04:06:06.483Z,0.90
2019-04-01T04:08:36.945Z,0.80
2019-04-01T04:11:07.581Z,0.70
2019-04-01T04:13:40.640Z,0.60
2019-04-01T04:16:12.876Z,1.00
2019-04-01T04:18:43.983Z,0.87
2019-04-01T04:21:13.974Z,0.83
2019-04-01T04:23:44.481Z,0.70
2019-04-01T04:26:14.591Z,0.70
2019-04-01T04:28:44.966Z,0.80
2019-04-01T04:31:14.987Z,0.93
2019-04-01T04:33:45.193Z,0.90
2019-04-01T04:36:15.682Z,0.90
2019-04-01T04:38:48.594Z,0.73
2019-04-01T04:41:18.485Z,1.10
2019-04-01T04:43:48.087Z,0.83
2019-04-01T04:46:21.103Z,1.13
2019-04-01T04:48:50.421Z,0.80
2019-04-01T04:51:20.461Z,1.03
2019-04-01T04:53:50.942Z,1.40
2019-04-01T04:56:21.005Z,0.90
2019-04-01T04:58:51.973Z,0.53
2019-04-01T05:01:23.135Z,0.97
2019-04-01T05:03:53.475Z,1.03
2019-04-01T05:06:23.129Z,0.60
2019-04-01T05:08:52.949Z,0.50
2019-04-01T05:11:23.421Z,0.53
2019-04-01T05:13:53.519Z,1.33
2019-04-01T05:16:23.487Z,1.00
2019-04-01T05:18:53.981Z,0.70
2019-04-01T05:21:24.557Z,0.50
2019-04-01T05:23:54.909Z,1.00
2019-04-01T05:26:26.425Z,0.87
2019-04-01T05:28:58.363Z,1.13
2019-04-01T05:31:29.387Z,0.80
2019-04-01T05:34:01.129Z,1.10
2019-04-01T05:36:31.799Z,0.60
2019-04-01T05:39:02.364Z,0.70
2019-04-01T05:41:35.297Z,1.00
2019-04-01T05:44:05.883Z,0.83
2019-04-01T05:46:35.769Z,0.60
2019-04-01T05:49:07.856Z,0.50
2019-04-01T05:51:38.377Z,0.70
2019-04-01T05:54:11.239Z,0.70
2019-04-01T05:56:44.325Z,0.70
2019-04-01T05:59:14.391Z,1.50
2019-04-01T06:01:46.497Z,0.70
2019-04-01T06:04:16.445Z,0.80
2019-04-01T06:06:48.770Z,0.90
2019-04-01T06:09:19.000Z,1.97
2019-04-01T06:11:49.986Z,1.30
2019-04-01T06:14:20.467Z,1.20
2019-04-01T06:16:50.709Z,1.60
2019-04-01T06:19:20.361Z,1.60
2019-04-01T06:21:50.753Z,2.20
2019-04-01T06:24:20.995Z,1.30
2019-04-01T06:26:51.481Z,1.17
2019-04-01T06:29:21.945Z,1.50
2019-04-01T06:31:51.835Z,2.17
2019-04-01T06:34:22.202Z,2.20
2019-04-01T06:36:52.249Z,1.53
2019-04-01T06:39:22.611Z,1.83
2019-04-01T06:41:55.413Z,1.90
2019-04-01T06:44:25.415Z,1.93
2019-04-01T06:46:56.447Z,2.33
2019-04-01T06:49:26.873Z,2.50
2019-04-01T06:51:56.813Z,2.33
2019-04-01T06:54:26.717Z,2.83
2019-04-01T06:56:56.673Z,2.20
2019-04-01T06:59:36.150Z,1.83
2019-04-01T07:02:06.219Z,1.83
2019-04-01T07:04:35.932Z,1.90
2019-04-01T07:07:18.254Z,1.87
2019-04-01T07:09:38.926Z,1.80
2019-04-01T07:12:08.937Z,1.57
2019-04-01T07:14:38.621Z,1.80
2019-04-01T07:17:09.758Z,1.57
2019-04-01T07:19:39.748Z,1.50
2019-04-01T07:22:09.970Z,1.90
2019-04-01T07:24:40.170Z,1.53
2019-04-01T07:27:10.495Z,1.80
2019-04-01T07:29:42.579Z,1.13
2019-04-01T07:32:14.524Z,1.63
2019-04-01T07:34:45.487Z,1.60
2019-04-01T07:37:16.587Z,1.70
2019-04-01T07:39:47.069Z,1.20
2019-04-01T07:42:16.923Z,1.37
2019-04-01T07:44:46.846Z,1.40
2019-04-01T07:47:16.564Z,1.33
2019-04-01T07:49:47.249Z,1.10
2019-04-01T07:52:16.911Z,1.27
2019-04-01T07:54:46.914Z,1.30
2019-04-01T07:57:16.845Z,1.53
2019-04-01T07:59:49.331Z,1.50
2019-04-01T08:02:19.344Z,1.23
2019-04-01T08:04:49.057Z,1.53
2019-04-01T08:07:19.299Z,1.37
2019-04-01T08:09:49.685Z,1.20
2019-04-01T08:12:19.967Z,0.93
2019-04-01T08:14:50.048Z,1.60
2019-04-01T08:17:19.935Z,1.40
2019-04-01T08:19:50.285Z,1.33
2019-04-01T08:22:20.931Z,1.53
2019-04-01T08:24:51.731Z,1.13
2019-04-01T08:27:22.266Z,1.23
2019-04-01T08:29:52.678Z,1.63
2019-04-01T08:32:22.549Z,1.40
2019-04-01T08:34:52.355Z,0.90
2019-04-01T08:37:24.761Z,1.30
2019-04-01T08:39:55.657Z,1.30
2019-04-01T08:42:26.173Z,2.90
2019-04-01T08:44:56.018Z,1.30
2019-04-01T08:47:25.670Z,1.20
2019-04-01T08:49:55.734Z,1.43
2019-04-01T08:52:25.603Z,1.30
2019-04-01T08:54:56.199Z,1.10
2019-04-01T08:57:28.858Z,0.90
2019-04-01T08:59:59.801Z,1.10
2019-04-01T09:02:29.217Z,1.20
2019-04-01T09:05:01.231Z,0.80
2019-04-01T09:07:31.471Z,1.20
2019-04-01T09:10:02.132Z,1.00
2019-04-01T09:12:32.397Z,1.00
2019-04-01T09:15:02.509Z,0.73
2019-04-01T09:17:32.445Z,0.80
2019-04-01T09:20:02.454Z,0.87
2019-04-01T09:22:34.233Z,1.07
2019-04-01T09:25:05.178Z,0.90
2019-04-01T09:27:41.690Z,0.80
2019-04-01T09:30:11.642Z,0.70
2019-04-01T09:32:41.657Z,0.73
2019-04-01T09:35:13.680Z,0.80
2019-04-01T09:37:44.261Z,0.80
2019-04-01T09:40:14.860Z,0.80
2019-04-01T09:42:44.217Z,0.60
2019-04-01T09:45:14.401Z,0.93
2019-04-01T09:47:45.005Z,0.50
2019-04-01T09:50:14.513Z,0.80
2019-04-01T09:52:45.381Z,0.80
2019-04-01T09:55:18.137Z,0.60
2019-04-01T09:57:50.129Z,0.60
2019-04-01T10:00:21.283Z,0.90
2019-04-01T10:02:51.917Z,0.73
2019-04-01T10:05:22.807Z,0.70
2019-04-01T10:07:54.739Z,0.70
2019-04-01T10:10:25.357Z,0.90
2019-04-01T10:12:55.201Z,0.80
2019-04-01T10:15:25.510Z,0.70
2019-04-01T10:17:56.072Z,0.60
2019-04-01T10:20:27.165Z,0.80
2019-04-01T10:22:57.321Z,0.70
2019-04-01T10:25:27.789Z,0.73
2019-04-01T10:27:57.952Z,0.80
2019-04-01T10:30:28.513Z,0.67
2019-04-01T10:33:01.763Z,0.67
2019-04-01T10:35:30.241Z,0.60
2019-04-01T10:38:00.705Z,0.87
2019-04-01T10:40:31.227Z,0.67
2019-04-01T10:43:01.305Z,0.67
2019-04-01T10:45:30.866Z,0.70
2019-04-01T10:48:00.898Z,1.00
2019-04-01T10:50:31.313Z,0.80
2019-04-01T10:53:01.361Z,0.90
2019-04-01T10:55:31.323Z,1.00
2019-04-01T10:58:01.142Z,1.10
2019-04-01T11:00:31.808Z,1.03
2019-04-01T11:03:01.739Z,0.73
2019-04-01T11:05:32.738Z,0.60
2019-04-01T11:08:04.434Z,1.00
2019-04-01T11:10:34.713Z,0.93
2019-04-01T11:13:04.977Z,0.63
2019-04-01T11:15:35.517Z,0.73
2019-04-01T11:18:05.526Z,0.80
2019-04-01T11:20:36.886Z,0.80
2019-04-01T11:23:07.491Z,0.70
2019-04-01T11:25:37.438Z,1.03
2019-04-01T11:28:07.314Z,0.70
2019-04-01T11:30:37.868Z,0.80
2019-04-01T11:33:08.186Z,0.70
2019-04-01T11:35:38.792Z,0.70
2019-04-01T11:38:08.172Z,0.90
2019-04-01T11:40:39.092Z,0.80
2019-04-01T11:43:09.605Z,0.60
2019-04-01T11:45:40.448Z,0.70
2019-04-01T11:48:11.606Z,0.60
2019-04-01T11:50:42.074Z,0.70
2019-04-01T11:53:12.138Z,0.60
2019-04-01T11:55:42.553Z,0.80
2019-04-01T11:58:12.621Z,0.70
2019-04-01T12:00:45.375Z,0.60
2019-04-01T12:03:15.600Z,0.90
2019-04-01T12:05:45.974Z,0.80
2019-04-01T12:08:15.331Z,0.70
2019-04-01T12:10:46.353Z,0.70
2019-04-01T12:13:16.378Z,0.77
2019-04-01T12:15:47.198Z,0.80
2019-04-01T12:18:17.607Z,0.60
2019-04-01T12:20:48.055Z,0.90
2019-04-01T12:23:18.596Z,0.70
2019-04-01T12:25:49.531Z,0.70
2019-04-01T12:28:20.036Z,0.73
2019-04-01T12:30:49.918Z,0.67
2019-04-01T12:33:19.725Z,0.90
2019-04-01T12:35:50.924Z,0.70
2019-04-01T12:38:30.178Z,0.50
2019-04-01T12:41:00.721Z,0.50
2019-04-01T12:43:31.217Z,0.67
2019-04-01T12:46:01.758Z,0.60
2019-04-01T12:48:31.117Z,1.00
2019-04-01T12:51:01.380Z,0.60
2019-04-01T12:53:31.153Z,1.00
2019-04-01T12:56:04.893Z,0.60
2019-04-01T12:58:35.386Z,0.50
2019-04-01T13:01:04.964Z,0.60
2019-04-01T13:03:35.469Z,0.60
2019-04-01T13:06:05.331Z,0.57
2019-04-01T13:08:35.065Z,0.80
2019-04-01T13:11:04.784Z,0.70
2019-04-01T13:13:36.109Z,1.00
2019-04-01T13:16:08.897Z,0.70
2019-04-01T13:18:38.308Z,0.60
2019-04-01T13:21:08.835Z,0.63
2019-04-01T13:23:38.757Z,0.77
2019-04-01T13:26:09.682Z,0.87
2019-04-01T13:28:42.369Z,0.60
2019-04-01T13:31:12.251Z,1.07
2019-04-01T13:34:04.821Z,0.80
2019-04-01T13:36:57.989Z,0.77
2019-04-01T13:39:31.245Z,0.70
2019-04-01T13:42:09.121Z,0.77
2019-04-01T13:45:02.833Z,0.80
2019-04-01T13:47:33.656Z,0.90
2019-04-01T13:50:03.759Z,0.60
2019-04-01T13:52:34.489Z,0.60
2019-04-01T13:55:05.392Z,0.93
2019-04-01T13:57:35.406Z,0.90
2019-04-01T14:00:06.011Z,0.70
2019-04-01T14:02:37.053Z,1.60
2019-04-01T14:05:07.396Z,1.83
2019-04-01T14:07:37.095Z,1.00
2019-04-01T14:10:06.625Z,0.70
2019-04-01T14:12:37.015Z,0.70
2019-04-01T14:15:08.012Z,0.70
2019-04-01T14:17:38.394Z,0.60
2019-04-01T14:20:08.330Z,0.70
2019-04-01T14:22:38.034Z,0.60
2019-04-01T14:25:08.239Z,0.70
2019-04-01T14:27:39.323Z,0.60
2019-04-01T14:30:09.737Z,0.50
2019-04-01T14:32:39.708Z,0.83
2019-04-01T14:35:09.308Z,0.60
2019-04-01T14:37:39.883Z,0.77
2019-04-01T14:40:10.372Z,0.53
2019-04-01T14:42:40.561Z,0.70
2019-04-01T14:45:10.530Z,0.90
2019-04-01T14:47:55.931Z,0.70
2019-04-01T14:50:13.294Z,0.80
2019-04-01T14:52:43.690Z,0.80
2019-04-01T14:55:14.197Z,0.63
2019-04-01T14:57:44.497Z,0.70
2019-04-01T15:00:16.285Z,0.60
2019-04-01T15:02:46.283Z,0.50
2019-04-01T15:05:16.333Z,0.60
2019-04-01T15:07:47.517Z,0.50
2019-04-01T15:10:17.208Z,0.40
2019-04-01T15:12:46.992Z,0.50
2019-04-01T15:15:16.816Z,0.50
2019-04-01T15:17:47.286Z,0.70
2019-04-01T15:20:17.933Z,0.50
2019-04-01T15:22:48.443Z,0.53
2019-04-01T15:25:18.390Z,0.70
2019-04-01T15:27:49.810Z,0.67
2019-04-01T15:30:21.674Z,0.60
2019-04-01T15:32:52.157Z,0.57
2019-04-01T15:35:22.761Z,0.60
2019-04-01T15:37:54.674Z,0.60
2019-04-01T15:40:25.901Z,0.50
2019-04-01T15:42:55.528Z,0.60
2019-04-01T15:45:25.977Z,0.70
2019-04-01T15:47:56.977Z,0.60
2019-04-01T15:50:29.079Z,0.60
2019-04-01T15:52:59.087Z,0.60
2019-04-01T15:55:29.816Z,0.60
2019-04-01T15:58:00.429Z,0.90
2019-04-01T16:00:32.027Z,0.60
2019-04-01T16:03:02.454Z,0.60
2019-04-01T16:05:33.413Z,0.40
2019-04-01T16:08:04.041Z,0.47
2019-04-01T16:10:33.621Z,0.70
2019-04-01T16:13:02.933Z,0.80
2019-04-01T16:15:35.254Z,0.80
2019-04-01T16:18:08.165Z,0.77
2019-04-01T16:20:37.417Z,0.87
2019-04-01T16:23:07.861Z,1.03
2019-04-01T16:25:37.987Z,1.07
2019-04-01T16:28:08.589Z,0.60
2019-04-01T16:30:39.032Z,0.70
2019-04-01T16:33:09.988Z,1.17
2019-04-01T16:35:40.957Z,0.90
2019-04-01T16:38:11.693Z,0.80
2019-04-01T16:40:41.256Z,1.17
2019-04-01T16:43:11.195Z,0.70
2019-04-01T16:45:43.081Z,0.60
2019-04-01T16:48:13.379Z,0.67
2019-04-01T16:50:43.185Z,1.00
2019-04-01T16:53:13.965Z,0.73
2019-04-01T16:55:44.831Z,0.60
2019-04-01T16:58:14.462Z,1.07
2019-04-01T17:00:44.493Z,0.93
2019-04-01T17:03:14.258Z,0.70
2019-04-01T17:05:44.769Z,0.60
2019-04-01T17:08:14.566Z,0.53
2019-04-01T17:10:45.031Z,0.73
2019-04-01T17:13:24.973Z,0.70
2019-04-01T17:15:54.744Z,0.87
2019-04-01T17:18:25.083Z,0.90
2019-04-01T17:20:55.853Z,0.60
2019-04-01T17:23:30.583Z,0.87
2019-04-01T17:26:00.661Z,0.60
2019-04-01T17:28:31.237Z,0.70
2019-04-01T17:31:02.075Z,0.77
2019-04-01T17:33:31.684Z,0.80
2019-04-01T17:36:02.613Z,0.80
2019-04-01T17:38:32.486Z,1.17
2019-04-01T17:41:02.262Z,0.70
2019-04-01T17:43:32.544Z,0.80
2019-04-01T17:46:02.505Z,0.70
2019-04-01T17:48:33.272Z,0.50
2019-04-01T17:51:03.919Z,1.37
2019-04-01T17:53:35.125Z,0.60
2019-04-01T17:56:07.322Z,0.60
2019-04-01T17:58:37.068Z,0.60
2019-04-01T18:01:06.677Z,0.80
2019-04-01T18:03:37.409Z,0.67
2019-04-01T18:06:07.348Z,0.60
2019-04-01T18:08:38.009Z,0.70
2019-04-01T18:11:08.578Z,0.67
2019-04-01T18:13:39.993Z,0.63
2019-04-01T18:16:10.581Z,0.80
2019-04-01T18:18:40.305Z,0.70
2019-04-01T18:21:11.318Z,0.70
2019-04-01T18:23:41.582Z,0.90
2019-04-01T18:26:11.976Z,0.53
2019-04-01T18:28:41.920Z,0.70
2019-04-01T18:31:11.654Z,0.57
2019-04-01T18:33:55.321Z,0.80
2019-04-01T18:36:13.640Z,0.67
2019-04-01T18:38:43.336Z,0.73
2019-04-01T18:41:13.561Z,0.60
2019-04-01T18:43:43.453Z,0.80
2019-04-01T18:46:13.771Z,0.87
2019-04-01T18:48:44.197Z,0.73
2019-04-01T18:51:14.756Z,0.90
2019-04-01T18:53:45.721Z,0.60
2019-04-01T18:56:15.448Z,0.60
2019-04-01T18:58:45.417Z,0.50
2019-04-01T19:01:16.437Z,2.60
2019-04-01T19:03:46.181Z,0.93
2019-04-01T19:06:17.309Z,0.50
2019-04-01T19:08:48.097Z,0.50
2019-04-01T19:11:17.809Z,0.60
2019-04-01T19:13:47.859Z,0.70
2019-04-01T19:16:18.845Z,0.70
2019-04-01T19:18:48.487Z,0.90
2019-04-01T19:21:20.459Z,0.73
2019-04-01T19:23:50.054Z,0.70
2019-04-01T19:26:19.969Z,0.87
2019-04-01T19:28:50.261Z,0.77
2019-04-01T19:31:20.359Z,0.80
2019-04-01T19:33:50.657Z,0.70
2019-04-01T19:36:21.117Z,0.60
2019-04-01T19:38:50.809Z,0.50
2019-04-01T19:41:20.881Z,1.20
2019-04-01T19:43:51.270Z,0.70
2019-04-01T19:46:22.029Z,0.70
2019-04-01T19:48:51.593Z,1.00
2019-04-01T19:51:21.988Z,0.60
2019-04-01T19:53:53.271Z,0.80
2019-04-01T19:56:23.923Z,0.90
2019-04-01T19:58:54.181Z,0.80
2019-04-01T20:01:25.625Z,0.90
2019-04-01T20:03:55.713Z,0.60
2019-04-01T20:06:26.226Z,0.90
2019-04-01T20:08:56.393Z,0.70
2019-04-01T20:11:28.058Z,0.60
2019-04-01T20:13:58.273Z,0.90
2019-04-01T20:16:29.374Z,6.67
2019-04-01T20:19:02.006Z,2.10
2019-04-01T20:21:31.845Z,1.50
2019-04-01T20:24:01.406Z,1.10
2019-04-01T20:26:31.337Z,1.63
2019-04-01T20:29:01.092Z,1.40
2019-04-01T20:31:32.181Z,1.60
2019-04-01T20:34:04.240Z,1.27
2019-04-01T20:36:33.837Z,1.50
2019-04-01T20:39:06.174Z,1.70
2019-04-01T20:41:36.189Z,1.07
2019-04-01T20:44:06.846Z,2.27
2019-04-01T20:46:37.194Z,3.23
2019-04-01T20:49:08.318Z,3.17
2019-04-01T20:51:37.722Z,2.93
2019-04-01T20:54:11.835Z,2.80
2019-04-01T20:56:42.427Z,2.53
2019-04-01T20:59:11.913Z,4.57
2019-04-01T21:01:41.441Z,2.40
2019-04-01T21:04:10.994Z,2.90
2019-04-01T21:06:41.016Z,6.13
2019-04-01T21:09:10.986Z,5.50
2019-04-01T21:11:40.989Z,4.93
2019-04-01T21:14:10.630Z,4.00
2019-04-01T21:16:41.502Z,4.13
2019-04-01T21:19:11.869Z,3.53
2019-04-01T21:21:41.882Z,3.27
2019-04-01T21:24:12.145Z,4.80
2019-04-01T21:26:42.782Z,3.33
2019-04-01T21:29:13.209Z,3.60
2019-04-01T21:31:43.886Z,3.70
2019-04-01T21:34:14.117Z,2.20
2019-04-01T21:36:43.369Z,3.37
2019-04-01T21:39:13.434Z,5.67
2019-04-01T21:41:43.807Z,2.60
2019-04-01T21:44:14.455Z,1.17
2019-04-01T21:46:44.811Z,0.73
2019-04-01T21:49:14.180Z,0.80
2019-04-01T21:51:43.454Z,0.60
2019-04-01T21:54:13.149Z,0.50
2019-04-01T21:56:43.401Z,0.80
2019-04-01T21:59:13.910Z,0.60
2019-04-01T22:01:43.722Z,0.63
2019-04-01T22:04:15.415Z,0.70
2019-04-01T22:06:45.616Z,0.90
2019-04-01T22:09:15.769Z,0.40
2019-04-01T22:11:45.484Z,0.73
2019-04-01T22:14:15.434Z,0.93
2019-04-01T22:16:48.021Z,0.90
2019-04-01T22:19:17.923Z,0.60
2019-04-01T22:21:48.451Z,0.60
2019-04-01T22:24:18.862Z,0.80
2019-04-01T22:26:49.395Z,0.50
2019-04-01T22:29:20.080Z,0.60
2019-04-01T22:31:49.854Z,0.80
2019-04-01T22:34:20.514Z,0.70
2019-04-01T22:36:52.798Z,0.63
2019-04-01T22:39:27.243Z,0.60
2019-04-01T22:41:54.495Z,0.80
2019-04-01T22:44:24.203Z,0.60
2019-04-01T22:46:54.491Z,0.50
2019-04-01T22:49:24.694Z,0.70
2019-04-01T22:51:54.664Z,0.60
2019-04-01T22:54:25.171Z,0.80
2019-04-01T22:56:55.144Z,0.67
2019-04-01T22:59:25.886Z,0.60
2019-04-01T23:01:55.783Z,0.57
2019-04-01T23:04:26.449Z,0.57
2019-04-01T23:06:56.267Z,0.70
2019-04-01T23:09:26.182Z,1.10
2019-04-01T23:11:56.179Z,0.53
2019-04-01T23:14:26.038Z,0.60
2019-04-01T23:16:56.359Z,0.60
2019-04-01T23:19:26.256Z,0.80
2019-04-01T23:21:56.279Z,0.60
2019-04-01T23:24:26.169Z,0.70
2019-04-01T23:26:55.946Z,0.60
2019-04-01T23:29:25.639Z,0.97
2019-04-01T23:31:58.362Z,0.80
2019-04-01T23:34:28.337Z,0.73
2019-04-01T23:36:58.402Z,0.80
2019-04-01T23:39:28.310Z,0.83
2019-04-01T23:41:59.368Z,0.63
2019-04-01T23:44:29.712Z,0.50
2019-04-01T23:46:59.527Z,0.70
2019-04-01T23:49:29.621Z,0.90
2019-04-01T23:52:00.627Z,0.77
2019-04-01T23:54:31.209Z,0.60
2019-04-01T23:57:02.146Z,0.80
2019-04-01T23:59:32.166Z,0.90
